Time;durP1;ratioP1;P1;durP2;ratioP2;P2;SDS_P1;SDS_P2;PMS_P1;PMS_P2;Temp;Humidity;BMP_temperature;BMP_pressure;BME280_temperature;BME280_humidity;BME280_pressure;Samples;Min_cycle;Max_cycle;Signal;HPM_P1;HPM_P2
2023/05/25 00:01:06;;;;;;;10.38;4.00;;;10.00;99.90;;;;;;5007581;28;20023;-78
2023/05/25 00:03:32;;;;;;;6.10;2.65;;;10.00;99.90;;;;;;5006567;28;20029;-77
2023/05/25 00:06:00;;;;;;;12.48;3.45;;;10.00;99.90;;;;;;5006200;28;20036;-78
2023/05/25 00:08:26;;;;;;;9.43;3.40;;;9.90;99.90;;;;;;4988048;28;20026;-78
2023/05/25 00:10:51;;;;;;;16.27;2.88;;;9.90;99.90;;;;;;5003702;28;20056;-78
2023/05/25 00:13:17;;;;;;;6.82;2.65;;;9.80;99.90;;;;;;5012826;28;20037;-78
2023/05/25 00:15:43;;;;;;;12.65;3.67;;;9.90;99.90;;;;;;5005668;28;20054;-76
2023/05/25 00:18:08;;;;;;;8.80;3.08;;;9.90;99.90;;;;;;5003663;28;20427;-77
2023/05/25 00:20:34;;;;;;;6.75;2.60;;;9.90;99.90;;;;;;5007296;28;20038;-77
2023/05/25 00:23:01;;;;;;;10.63;3.22;;;9.80;99.90;;;;;;5006479;28;20037;-77
2023/05/25 00:25:27;;;;;;;5.40;2.35;;;9.80;99.90;;;;;;5005088;28;20038;-78
2023/05/25 00:27:53;;;;;;;5.22;2.60;;;9.80;99.90;;;;;;5005297;28;20040;-78
2023/05/25 00:30:19;;;;;;;8.18;2.45;;;;;;;;;;5004718;28;20050;-77
2023/05/25 00:32:52;;;;;;;6.78;2.40;;;9.80;99.90;;;;;;5004516;28;20367;-78
2023/05/25 00:35:34;;;;;;;8.18;2.38;;;9.80;99.90;;;;;;4969342;28;20058;-77
2023/05/25 00:37:59;;;;;;;4.90;2.90;;;9.80;99.90;;;;;;4985931;28;20061;-77
2023/05/25 00:40:25;;;;;;;5.45;2.63;;;9.80;99.90;;;;;;5003036;28;20023;-78
2023/05/25 00:42:51;;;;;;;7.57;2.80;;;9.80;99.90;;;;;;4998965;28;20081;-78
2023/05/25 00:45:17;;;;;;;5.68;2.15;;;9.80;99.90;;;;;;4985217;28;20022;-78
2023/05/25 00:47:44;;;;;;;8.52;2.22;;;9.70;99.90;;;;;;4999639;28;20049;-78
2023/05/25 00:50:14;;;;;;;8.20;3.17;;;9.70;99.90;;;;;;5001203;28;20045;-78
2023/05/25 00:52:39;;;;;;;;;;;9.60;99.90;;;;;;4999688;28;20052;-78
2023/05/25 00:55:07;;;;;;;9.02;2.65;;;9.50;99.90;;;;;;4984619;28;20431;-78
2023/05/25 00:57:36;;;;;;;5.28;2.42;;;9.50;99.90;;;;;;5001480;28;20053;-78
2023/05/25 01:00:07;;;;;;;11.65;3.35;;;9.40;99.90;;;;;;4984285;28;20042;-78
2023/05/25 01:02:34;;;;;;;7.35;2.78;;;9.30;99.90;;;;;;4984058;28;20181;-78
2023/05/25 01:05:05;;;;;;;6.40;2.83;;;9.30;99.90;;;;;;4984213;28;20022;-78
2023/05/25 01:07:32;;;;;;;4.72;2.30;;;9.20;99.90;;;;;;4984136;28;20506;-77
2023/05/25 01:10:02;;;;;;;5.22;2.65;;;9.30;99.90;;;;;;4978501;28;20153;-78
2023/05/25 01:12:28;;;;;;;;;;;9.40;99.90;;;;;;4995227;28;20026;-78
2023/05/25 01:14:56;;;;;;;4.90;3.17;;;9.30;99.90;;;;;;4976871;28;19912;-77
2023/05/25 01:17:21;;;;;;;3.83;2.40;;;9.30;99.90;;;;;;4994613;28;20042;-77
2023/05/25 01:19:47;;;;;;;4.72;2.85;;;9.30;99.90;;;;;;4994727;28;20069;-78
2023/05/25 01:22:31;;;;;;;3.28;2.45;;;9.20;99.90;;;;;;4996056;28;20391;-78
2023/05/25 01:25:05;;;;;;;5.18;2.33;;;9.20;99.90;;;;;;4994858;28;20026;-78
2023/05/25 01:27:38;;;;;;;7.72;2.65;;;9.30;99.90;;;;;;4995039;28;20201;-77
2023/05/25 01:30:10;;;;;;;8.02;3.45;;;9.40;99.90;;;;;;4976963;28;20097;-77
2023/05/25 01:32:41;;;;;;;5.93;2.47;;;9.40;99.90;;;;;;4996662;28;20074;-77
2023/05/25 01:35:11;;;;;;;5.40;2.92;;;9.40;99.90;;;;;;4978573;28;20554;-77
2023/05/25 01:37:46;;;;;;;7.15;2.47;;;9.50;99.90;;;;;;4995729;28;20041;-77
2023/05/25 01:40:15;;;;;;;10.13;2.92;;;9.50;99.90;;;;;;4993525;28;20030;-78
2023/05/25 01:42:41;;;;;;;4.63;2.33;;;9.60;99.90;;;;;;4996165;28;20471;-77
2023/05/25 01:45:08;;;;;;;6.43;2.58;;;9.60;99.90;;;;;;4993005;28;20030;-78
2023/05/25 01:47:36;;;;;;;5.38;2.53;;;9.60;99.90;;;;;;4995185;28;20028;-78
2023/05/25 01:50:13;;;;;;;10.43;2.83;;;9.70;99.90;;;;;;4996377;28;20073;-78
2023/05/25 01:52:47;;;;;;;8.20;2.67;;;9.70;99.90;;;;;;4974555;28;20052;-78
2023/05/25 01:55:17;;;;;;;6.70;2.50;;;9.70;99.90;;;;;;4977002;28;20386;-78
2023/05/25 01:57:48;;;;;;;3.85;2.40;;;9.70;99.90;;;;;;4977145;28;20038;-78
2023/05/25 02:00:15;;;;;;;9.98;2.78;;;9.80;99.90;;;;;;4994966;28;20033;-77
2023/05/25 02:02:44;;;;;;;10.52;3.45;;;9.80;99.90;;;;;;4993843;28;20072;-78
2023/05/25 02:05:10;;;;;;;3.50;2.10;;;9.80;99.90;;;;;;4993812;28;20042;-77
2023/05/25 02:07:36;;;;;;;5.53;2.83;;;9.90;99.90;;;;;;4976193;28;20030;-77
2023/05/25 02:10:02;;;;;;;7.35;2.95;;;9.90;99.90;;;;;;4992944;28;20088;-78
2023/05/25 02:12:28;;;;;;;7.55;2.15;;;9.90;99.90;;;;;;4975294;28;20030;-77
2023/05/25 02:14:53;;;;;;;6.30;2.22;;;9.90;99.90;;;;;;4991223;28;20076;-78
2023/05/25 02:17:19;;;;;;;7.28;2.17;;;9.90;99.90;;;;;;4992815;28;20094;-79
2023/05/25 02:19:47;;;;;;;9.93;2.88;;;9.90;99.90;;;;;;4995654;28;20064;-77
2023/05/25 02:22:13;;;;;;;7.43;2.33;;;9.90;99.90;;;;;;4993701;28;20030;-78
2023/05/25 02:24:39;;;;;;;6.32;2.65;;;9.90;99.90;;;;;;4993152;28;20028;-78
2023/05/25 02:27:05;;;;;;;6.03;2.45;;;9.90;99.90;;;;;;4993646;28;20384;-77
2023/05/25 02:29:31;;;;;;;8.95;2.80;;;10.00;99.90;;;;;;4978498;28;20410;-77
2023/05/25 02:31:57;;;;;;;8.07;2.63;;;9.90;99.90;;;;;;4994932;28;20059;-77
2023/05/25 02:34:23;;;;;;;7.20;3.58;;;10.00;99.90;;;;;;4977443;28;20097;-77
2023/05/25 02:36:49;;;;;;;9.43;2.92;;;9.90;99.90;;;;;;4993975;28;20435;-77
2023/05/25 02:39:15;;;;;;;4.80;2.80;;;9.90;99.90;;;;;;4993482;28;20022;-78
2023/05/25 02:41:41;;;;;;;3.35;2.03;;;9.90;99.90;;;;;;4994399;28;20023;-77
2023/05/25 02:44:07;;;;;;;9.40;2.75;;;10.00;99.90;;;;;;4994330;28;20106;-78
2023/05/25 02:46:33;;;;;;;6.85;2.75;;;10.00;99.90;;;;;;4994366;28;20033;-77
2023/05/25 02:48:59;;;;;;;11.85;3.53;;;10.10;99.90;;;;;;4994161;28;20018;-78
2023/05/25 02:51:26;;;;;;;9.52;2.85;;;10.00;99.90;;;;;;4976327;28;20026;-78
2023/05/25 02:53:52;;;;;;;6.22;3.08;;;10.00;99.90;;;;;;4975843;28;20030;-77
2023/05/25 02:56:17;;;;;;;12.73;3.63;;;10.00;99.90;;;;;;4992986;28;20043;-77
2023/05/25 02:58:43;;;;;;;9.30;2.83;;;9.90;99.90;;;;;;4993890;28;20033;-78
2023/05/25 03:01:09;;;;;;;5.32;2.42;;;9.90;99.90;;;;;;4994186;28;20026;-77
2023/05/25 03:03:38;;;;;;;5.22;2.28;;;10.00;99.90;;;;;;4993348;28;20030;-77
2023/05/25 03:06:04;;;;;;;6.60;2.63;;;9.90;99.90;;;;;;4994262;28;20108;-77
2023/05/25 03:08:30;;;;;;;8.48;2.55;;;9.90;99.90;;;;;;4994168;28;20050;-78
2023/05/25 03:10:57;;;;;;;16.15;2.55;;;9.90;99.90;;;;;;4992512;28;20026;-77
2023/05/25 03:13:22;;;;;;;8.38;2.78;;;10.00;99.90;;;;;;4993945;28;20026;-77
2023/05/25 03:15:48;;;;;;;4.50;1.90;;;9.90;99.90;;;;;;4993783;28;20035;-78
2023/05/25 03:18:13;;;;;;;5.85;2.95;;;9.90;99.90;;;;;;4993716;28;20033;-79
2023/05/25 03:20:40;;;;;;;8.48;2.85;;;9.90;99.90;;;;;;4992906;28;20022;-78
2023/05/25 03:23:06;;;;;;;8.18;2.63;;;10.00;99.90;;;;;;4976543;28;20026;-78
2023/05/25 03:25:31;;;;;;;7.05;2.65;;;10.00;99.90;;;;;;4991689;28;20026;-77
2023/05/25 03:27:58;;;;;;;4.88;2.22;;;10.00;99.90;;;;;;4993720;28;20023;-78
2023/05/25 03:30:24;;;;;;;7.22;2.80;;;10.00;99.90;;;;;;4993781;28;20022;-77
2023/05/25 03:32:51;;;;;;;12.63;4.10;;;9.90;99.90;;;;;;4992065;28;20097;-78
2023/05/25 03:35:18;;;;;;;9.15;3.65;;;9.90;99.90;;;;;;4992160;28;20037;-77
2023/05/25 03:37:44;;;;;;;10.38;2.88;;;10.00;99.90;;;;;;4992036;28;20059;-78
2023/05/25 03:40:10;;;;;;;7.70;2.15;;;10.00;99.90;;;;;;4991475;28;20149;-78
2023/05/25 03:42:36;;;;;;;9.60;3.47;;;10.00;99.90;;;;;;4992633;28;20023;-77
2023/05/25 03:45:03;;;;;;;7.95;2.72;;;10.00;99.90;;;;;;4991546;28;20030;-78
2023/05/25 03:47:29;;;;;;;10.05;2.72;;;9.90;99.90;;;;;;4993148;28;20047;-77
2023/05/25 03:49:55;;;;;;;5.25;2.97;;;9.80;99.90;;;;;;4991632;28;20050;-78
2023/05/25 03:52:22;;;;;;;7.70;2.92;;;9.80;99.90;;;;;;4975615;28;20037;-77
2023/05/25 03:54:48;;;;;;;7.57;2.47;;;9.80;99.90;;;;;;4992744;28;20041;-78
2023/05/25 03:57:14;;;;;;;7.75;3.47;;;9.80;99.90;;;;;;4991403;28;20074;-77
2023/05/25 03:59:39;;;;;;;6.55;2.80;;;9.80;99.90;;;;;;4976002;28;20069;-78
2023/05/25 04:02:05;;;;;;;6.22;2.88;;;9.90;99.90;;;;;;4993042;28;20180;-75
2023/05/25 04:04:40;;;;;;;7.18;2.40;;;9.90;99.90;;;;;;4992806;28;20018;-77
2023/05/25 04:07:10;;;;;;;9.82;3.25;;;9.80;99.90;;;;;;4991790;28;20042;-77
2023/05/25 04:09:59;;;;;;;12.73;2.80;;;9.90;99.90;;;;;;4998157;28;20389;-78
2023/05/25 04:12:36;;;;;;;6.55;3.20;;;11.00;99.90;;;;;;5015175;28;20022;-78
2023/05/25 04:15:08;;;;;;;8.10;3.78;;;9.90;99.90;;;;;;5016902;28;20099;-77
2023/05/25 04:17:41;;;;;;;12.85;3.83;;;9.90;99.90;;;;;;5013355;28;20046;-78
2023/05/25 04:20:10;;;;;;;11.07;3.15;;;9.90;99.90;;;;;;5000001;28;20386;-79
2023/05/25 04:22:39;;;;;;;7.90;2.95;;;9.80;99.90;;;;;;5000770;28;20030;-78
2023/05/25 04:25:15;;;;;;;8.27;3.03;;;9.90;99.90;;;;;;5001203;28;20106;-78
2023/05/25 04:27:41;;;;;;;8.80;3.15;;;9.90;99.90;;;;;;5008768;28;20045;-77
2023/05/25 04:30:09;;;;;;;7.15;2.65;;;10.00;99.90;;;;;;5008707;28;20045;-79
2023/05/25 04:32:39;;;;;;;11.93;2.97;;;10.00;99.90;;;;;;5008300;28;20388;-77
2023/05/25 04:35:05;;;;;;;8.07;3.42;;;10.10;99.90;;;;;;4972417;28;20502;-77
2023/05/25 04:37:32;;;;;;;11.18;2.80;;;10.20;99.90;;;;;;4987657;28;20038;-78
2023/05/25 04:39:58;;;;;;;5.45;2.63;;;10.10;99.90;;;;;;5007650;28;20026;-77
2023/05/25 04:42:27;;;;;;;7.10;3.38;;;10.20;99.90;;;;;;4989444;28;20027;-77
2023/05/25 04:44:54;;;;;;;;;;;10.20;99.90;;;;;;4991739;28;20467;-77
2023/05/25 04:47:20;;;;;;;9.55;2.90;;;10.40;99.90;;;;;;5006915;28;20000;-78
2023/05/25 04:50:00;;;;;;;8.27;2.92;;;10.30;99.90;;;;;;5012403;28;20033;-78
2023/05/25 04:53:04;;;;;;;6.13;4.05;;;10.30;99.90;;;;;;4997226;28;20034;-77
2023/05/25 04:55:35;;;;;;;10.15;2.67;;;10.40;99.90;;;;;;4998297;28;20031;-79
2023/05/25 04:58:01;;;;;;;5.85;2.90;;;10.60;99.90;;;;;;5012705;28;20054;-78
2023/05/25 05:00:27;;;;;;;4.82;2.40;;;10.70;99.90;;;;;;5010218;28;20022;-77
2023/05/25 05:02:57;;;;;;;8.75;3.13;;;10.80;99.90;;;;;;5009863;28;20030;-78
2023/05/25 05:05:23;;;;;;;9.77;3.38;;;11.00;99.90;;;;;;4998492;28;20042;-77
2023/05/25 05:07:49;;;;;;;10.00;3.42;;;10.80;99.90;;;;;;5003297;28;20038;-78
2023/05/25 05:10:14;;;;;;;5.25;2.47;;;10.80;99.90;;;;;;4994303;28;20035;-78
2023/05/25 05:12:40;;;;;;;10.45;3.30;;;10.80;99.90;;;;;;4976311;28;20030;-78
2023/05/25 05:15:06;;;;;;;4.85;2.30;;;10.80;99.90;;;;;;5010536;28;20050;-78
2023/05/25 05:17:32;;;;;;;8.98;3.25;;;10.90;99.90;;;;;;5013919;28;20486;-77
2023/05/25 05:19:58;;;;;;;6.22;3.25;;;11.00;99.90;;;;;;5014061;28;20026;-77
2023/05/25 05:22:24;;;;;;;7.40;2.85;;;11.00;99.90;;;;;;5012861;28;20084;-77
2023/05/25 05:24:50;;;;;;;4.68;2.80;;;11.10;99.90;;;;;;5010137;28;20426;-78
2023/05/25 05:27:16;;;;;;;10.90;2.97;;;11.00;99.90;;;;;;5010830;28;20026;-78
2023/05/25 05:29:41;;;;;;;6.05;2.92;;;10.90;99.90;;;;;;5010673;28;20026;-77
2023/05/25 05:32:07;;;;;;;7.35;3.17;;;11.00;99.90;;;;;;5010080;28;20482;-77
2023/05/25 05:34:33;;;;;;;8.77;3.38;;;11.10;99.90;;;;;;5009214;28;20327;-76
2023/05/25 05:36:59;;;;;;;6.47;3.10;;;11.10;99.90;;;;;;5009394;28;20084;-77
2023/05/25 05:39:28;;;;;;;3.67;2.40;;;11.20;99.90;;;;;;5008543;28;20049;-77
2023/05/25 05:41:54;;;;;;;10.50;2.95;;;11.10;99.90;;;;;;4976109;28;20030;-78
2023/05/25 05:44:21;;;;;;;7.35;2.72;;;11.10;99.90;;;;;;5020139;28;20305;-77
2023/05/25 05:46:46;;;;;;;12.00;4.03;;;10.90;99.90;;;;;;5017042;28;20022;-76
2023/05/25 05:49:12;;;;;;;12.07;2.78;;;10.80;99.90;;;;;;5020071;28;20026;-76
2023/05/25 05:51:37;;;;;;;10.23;2.85;;;11.00;99.90;;;;;;5023262;28;20428;-77
2023/05/25 05:54:04;;;;;;;11.07;3.90;;;11.00;99.90;;;;;;5021852;28;20022;-76
2023/05/25 05:56:30;;;;;;;10.35;2.90;;;11.00;99.90;;;;;;5022441;28;20029;-77
2023/05/25 05:58:56;;;;;;;5.15;2.85;;;11.00;99.90;;;;;;5022139;28;20026;-78
2023/05/25 06:01:22;;;;;;;16.27;3.47;;;11.10;99.90;;;;;;5022467;28;20203;-77
2023/05/25 06:03:49;;;;;;;8.18;3.50;;;11.10;99.90;;;;;;5007450;28;20025;-78
2023/05/25 06:06:16;;;;;;;8.50;3.45;;;11.30;99.90;;;;;;5000377;28;20022;-78
2023/05/25 06:08:42;;;;;;;12.60;3.35;;;11.40;99.90;;;;;;5023862;28;20430;-78
2023/05/25 06:11:11;;;;;;;7.55;2.95;;;11.70;99.90;;;;;;5014545;28;20032;-77
2023/05/25 06:13:36;;;;;;;14.40;4.30;;;11.90;99.90;;;;;;5016218;28;20029;-77
2023/05/25 06:16:11;;;;;;;6.95;3.60;;;11.80;99.90;;;;;;5033256;28;20018;-76
2023/05/25 06:18:43;;;;;;;8.07;3.00;;;11.90;99.90;;;;;;5014276;28;20025;-76
2023/05/25 06:21:12;;;;;;;9.70;4.15;;;12.00;99.90;;;;;;5033169;28;20006;-76
2023/05/25 06:23:41;;;;;;;15.02;3.80;;;12.00;99.90;;;;;;5031826;28;20021;-78
2023/05/25 06:26:08;;;;;;;6.60;3.25;;;12.00;99.90;;;;;;5025288;28;20236;-81
2023/05/25 06:28:34;;;;;;;9.63;3.55;;;12.10;99.90;;;;;;5025092;28;20493;-76
2023/05/25 06:31:19;;;;;;;8.82;3.35;;;12.10;99.90;;;;;;5030640;28;20373;-77
2023/05/25 06:33:45;;;;;;;9.25;3.72;;;12.30;99.90;;;;;;5021722;28;20103;-80
2023/05/25 06:36:12;;;;;;;8.98;3.42;;;12.20;99.90;;;;;;5021352;28;20044;-78
2023/05/25 06:38:38;;;;;;;11.82;3.60;;;12.50;99.90;;;;;;5024670;28;20030;-79
2023/05/25 06:41:04;;;;;;;7.57;2.92;;;12.60;99.90;;;;;;5001100;28;20058;-77
2023/05/25 06:43:31;;;;;;;8.75;4.45;;;12.40;99.90;;;;;;5005448;28;20025;-78
2023/05/25 06:45:57;;;;;;;10.75;3.80;;;12.60;99.90;;;;;;5001732;28;20021;-78
2023/05/25 06:48:23;;;;;;;11.63;4.03;;;13.10;99.60;;;;;;5010444;28;20094;-79
2023/05/25 06:50:49;;;;;;;8.15;4.22;;;13.10;99.30;;;;;;5030884;28;20014;-79
2023/05/25 06:53:15;;;;;;;10.30;3.65;;;12.70;99.40;;;;;;5015995;28;20021;-80
2023/05/25 06:55:41;;;;;;;9.10;3.80;;;12.60;99.40;;;;;;5006902;28;20129;-80
2023/05/25 06:58:07;;;;;;;13.27;3.55;;;12.60;99.50;;;;;;5030027;28;20034;-80
2023/05/25 07:00:33;;;;;;;17.02;3.83;;;12.90;99.50;;;;;;5025100;28;20081;-81
2023/05/25 07:02:59;;;;;;;9.90;3.88;;;13.20;99.00;;;;;;5005629;28;20079;-78
2023/05/25 07:05:25;;;;;;;8.15;3.47;;;13.30;98.10;;;;;;5002501;28;20044;-77
2023/05/25 07:07:50;;;;;;;13.50;3.00;;;13.10;97.60;;;;;;5026322;28;20198;-79
2023/05/25 07:10:16;;;;;;;10.02;3.25;;;13.30;98.40;;;;;;5023840;28;20034;-80
2023/05/25 07:12:42;;;;;;;6.78;3.03;;;13.60;97.90;;;;;;5031384;28;20053;-76
2023/05/25 07:15:08;;;;;;;10.60;2.80;;;13.80;96.40;;;;;;5001343;28;20026;-78
2023/05/25 07:17:35;;;;;;;6.47;3.47;;;14.00;96.50;;;;;;4978522;28;20045;-77
2023/05/25 07:20:01;;;;;;;5.50;3.42;;;14.10;94.90;;;;;;4980158;28;20103;-78
2023/05/25 07:22:27;;;;;;;13.77;4.32;;;14.60;92.20;;;;;;5006668;28;20015;-80
2023/05/25 07:24:52;;;;;;;7.38;3.38;;;14.80;91.10;;;;;;4988358;28;20026;-79
2023/05/25 07:27:18;;;;;;;15.90;3.72;;;14.50;91.40;;;;;;5006138;28;20013;-79
2023/05/25 07:29:44;;;;;;;6.57;3.78;;;14.30;93.40;;;;;;4991821;28;20085;-78
2023/05/25 07:32:10;;;;;;;4.90;2.85;;;14.70;91.30;;;;;;5002250;28;20006;-79
2023/05/25 07:34:35;;;;;;;18.52;3.50;;;15.00;91.40;;;;;;4981152;28;20069;-78
2023/05/25 07:37:01;;;;;;;8.13;3.80;;;15.30;91.30;;;;;;5008377;28;20094;-78
2023/05/25 07:39:27;;;;;;;7.05;3.63;;;15.30;88.60;;;;;;4996200;28;20034;-80
2023/05/25 07:41:52;;;;;;;7.03;3.05;;;15.00;90.40;;;;;;4985058;28;20032;-78
2023/05/25 07:44:18;;;;;;;8.93;2.72;;;14.80;86.50;;;;;;4997124;28;20110;-79
2023/05/25 07:46:44;;;;;;;6.72;2.95;;;15.10;86.90;;;;;;4996309;28;20391;-78
2023/05/25 07:49:15;;;;;;;6.57;3.15;;;15.40;86.90;;;;;;5006596;28;20092;-79
2023/05/25 07:51:44;;;;;;;7.43;3.83;;;15.50;83.20;;;;;;5009608;28;20033;-78
2023/05/25 07:54:10;;;;;;;7.78;3.22;;;15.70;85.50;;;;;;5003704;28;20034;-77
2023/05/25 07:56:35;;;;;;;7.60;3.20;;;15.90;85.10;;;;;;5005475;28;20062;-81
2023/05/25 07:59:01;;;;;;;6.95;3.35;;;15.90;85.30;;;;;;5014331;28;20026;-80
2023/05/25 08:01:27;;;;;;;6.00;3.38;;;16.40;83.00;;;;;;5014470;28;20395;-79
2023/05/25 08:03:53;;;;;;;7.28;3.35;;;16.30;82.00;;;;;;5015020;28;20018;-78
2023/05/25 08:06:18;;;;;;;6.28;3.75;;;16.50;79.90;;;;;;5011925;28;20543;-78
2023/05/25 08:08:44;;;;;;;10.43;3.75;;;16.90;80.80;;;;;;5025523;28;20084;-79
2023/05/25 08:11:10;;;;;;;7.88;3.35;;;16.40;77.60;;;;;;5016340;28;20033;-79
2023/05/25 08:13:36;;;;;;;8.75;3.30;;;16.50;78.80;;;;;;5011904;28;20024;-78
2023/05/25 08:16:02;;;;;;;11.73;3.22;;;16.30;77.80;;;;;;5004013;28;20033;-77
2023/05/25 08:18:28;;;;;;;6.80;3.67;;;16.30;79.20;;;;;;5022934;28;20142;-80
2023/05/25 08:20:53;;;;;;;5.57;3.55;;;16.80;80.00;;;;;;4998375;28;20033;-79
2023/05/25 08:23:20;;;;;;;9.63;3.55;;;17.50;77.00;;;;;;5025001;28;20066;-76
2023/05/25 08:25:46;;;;;;;7.68;3.08;;;18.00;76.00;;;;;;5021972;28;20033;-78
2023/05/25 08:28:12;;;;;;;7.30;3.55;;;18.00;74.50;;;;;;5015313;28;20022;-78
2023/05/25 08:30:37;;;;;;;8.85;3.80;;;17.10;73.80;;;;;;5020126;28;20029;-80
2023/05/25 08:33:04;;;;;;;18.00;4.40;;;16.80;79.00;;;;;;5000724;28;20141;-79
2023/05/25 08:35:29;;;;;;;8.35;3.58;;;17.00;77.50;;;;;;5007700;28;20034;-78
2023/05/25 08:37:55;;;;;;;12.40;3.45;;;17.00;75.00;;;;;;4991789;28;20038;-78
2023/05/25 08:40:23;;;;;;;12.32;3.60;;;17.00;75.00;;;;;;4995744;28;20023;-79
2023/05/25 08:42:49;;;;;;;10.07;3.83;;;17.40;74.40;;;;;;4997248;28;20030;-79
2023/05/25 08:45:15;;;;;;;7.93;3.50;;;17.90;72.70;;;;;;4992192;28;20037;-80
2023/05/25 08:47:46;;;;;;;7.65;3.95;;;17.90;72.80;;;;;;5005575;28;20013;-80
2023/05/25 08:50:14;;;;;;;9.18;3.88;;;17.70;73.70;;;;;;5000756;28;20022;-79
2023/05/25 08:52:41;;;;;;;8.00;3.40;;;17.80;71.20;;;;;;5005355;28;20060;-79
2023/05/25 08:55:08;;;;;;;9.52;4.53;;;17.40;72.60;;;;;;5000918;28;20025;-79
2023/05/25 08:57:55;;;;;;;9.90;4.15;;;17.20;74.90;;;;;;5004633;28;20093;-78
2023/05/25 09:00:33;;;;;;;10.55;3.63;;;17.00;74.60;;;;;;4991427;28;20567;-78
2023/05/25 09:03:14;;;;;;;9.25;3.13;;;16.80;77.90;;;;;;4990467;28;20105;-78
2023/05/25 09:05:40;;;;;;;7.75;3.50;;;17.10;78.90;;;;;;4990359;28;20054;-78
2023/05/25 09:08:07;;;;;;;12.63;3.58;;;18.00;75.90;;;;;;4990055;28;20034;-78
2023/05/25 09:10:39;;;;;;;6.43;3.92;;;18.30;73.90;;;;;;4989251;28;20375;-78
2023/05/25 09:13:05;;;;;;;11.35;4.43;;;18.60;70.80;;;;;;4989799;28;20022;-79
2023/05/25 09:15:31;;;;;;;6.68;3.50;;;18.40;71.00;;;;;;4989265;28;20030;-79
2023/05/25 09:17:57;;;;;;;12.70;3.42;;;18.70;72.10;;;;;;4992938;28;20030;-80
2023/05/25 09:20:24;;;;;;;8.32;3.00;;;19.50;70.30;;;;;;5003632;28;20102;-80
2023/05/25 09:22:50;;;;;;;7.40;3.63;;;19.80;68.80;;;;;;5007325;28;20194;-81
2023/05/25 09:25:21;;;;;;;11.25;3.67;;;19.30;68.00;;;;;;5003838;28;20034;-79
2023/05/25 09:27:48;;;;;;;10.65;3.40;;;19.10;68.00;;;;;;4999713;28;20026;-78
2023/05/25 09:30:14;;;;;;;9.48;3.78;;;18.60;70.20;;;;;;4996776;28;20238;-77
2023/05/25 09:32:40;;;;;;;9.18;4.50;;;18.10;72.30;;;;;;5004793;28;20048;-79
2023/05/25 09:35:08;;;;;;;12.45;3.90;;;18.00;73.20;;;;;;5015052;28;20226;-76
2023/05/25 09:37:35;;;;;;;8.27;3.95;;;18.10;73.20;;;;;;5012355;28;20478;-77
2023/05/25 09:40:00;;;;;;;7.82;3.45;;;18.10;72.80;;;;;;5013043;28;20018;-77
2023/05/25 09:42:26;;;;;;;13.38;3.97;;;18.30;74.70;;;;;;5016706;28;20064;-78
2023/05/25 09:44:51;;;;;;;10.80;3.85;;;18.50;71.60;;;;;;5016785;28;20032;-77
2023/05/25 09:47:17;;;;;;;10.13;3.45;;;18.50;71.10;;;;;;5023702;28;20057;-77
2023/05/25 09:49:46;;;;;;;10.35;5.05;;;18.60;71.80;;;;;;5024132;28;20026;-76
2023/05/25 09:52:13;;;;;;;7.68;3.85;;;18.70;69.90;;;;;;5026814;28;20061;-76
2023/05/25 09:54:42;;;;;;;8.10;3.70;;;18.50;70.00;;;;;;5023538;28;20026;-76
2023/05/25 09:57:09;;;;;;;7.10;3.90;;;17.90;73.20;;;;;;5023409;28;20037;-76
2023/05/25 09:59:38;;;;;;;7.90;4.07;;;17.80;72.70;;;;;;5030358;28;20057;-77
2023/05/25 10:02:05;;;;;;;10.77;3.95;;;18.10;72.30;;;;;;5024074;28;20064;-77
2023/05/25 10:04:31;;;;;;;8.52;3.80;;;18.60;70.50;;;;;;5026779;28;20109;-76
2023/05/25 10:06:58;;;;;;;8.85;3.75;;;19.30;70.20;;;;;;5030454;28;20018;-79
2023/05/25 10:09:27;;;;;;;6.82;3.35;;;20.00;67.40;;;;;;5006751;28;20106;-77
2023/05/25 10:11:54;;;;;;;10.75;4.97;;;20.30;66.90;;;;;;5029058;28;20018;-76
2023/05/25 10:14:26;;;;;;;7.03;3.45;;;19.60;67.10;;;;;;5027546;28;20049;-77
2023/05/25 10:16:53;;;;;;;10.40;3.60;;;19.20;67.60;;;;;;5011175;28;20038;-77
2023/05/25 10:19:24;;;;;;;8.32;4.10;;;19.30;67.50;;;;;;5021975;28;20053;-80
2023/05/25 10:22:22;;;;;;;10.30;5.10;;;19.80;70.60;;;;;;5020873;28;20009;-77
2023/05/25 10:25:24;;;;;;;8.43;3.88;;;20.40;66.20;;;;;;5028750;28;20026;-77
2023/05/25 10:27:55;;;;;;;7.97;3.75;;;20.60;68.70;;;;;;4980806;28;20509;-77
2023/05/25 10:30:23;;;;;;;9.27;4.38;;;20.70;65.30;;;;;;5023860;28;20025;-77
2023/05/25 10:32:49;;;;;;;6.50;3.53;;;20.30;66.20;;;;;;5028010;28;20064;-78
2023/05/25 10:35:16;;;;;;;11.93;3.50;;;19.90;68.50;;;;;;5028683;28;20025;-77
2023/05/25 10:37:42;;;;;;;8.50;3.88;;;20.00;67.70;;;;;;5025492;28;20736;-78
2023/05/25 10:40:09;;;;;;;11.10;4.22;;;20.20;67.40;;;;;;5025188;28;20022;-77
2023/05/25 10:42:36;;;;;;;8.52;3.60;;;20.40;68.30;;;;;;5027793;28;20180;-77
2023/05/25 10:45:07;;;;;;;7.95;3.45;;;20.70;66.20;;;;;;5026540;28;20026;-77
2023/05/25 10:47:37;;;;;;;7.25;3.75;;;20.30;65.40;;;;;;5029298;28;20045;-77
2023/05/25 10:50:03;;;;;;;8.85;4.22;;;20.10;67.70;;;;;;5031618;28;20022;-77
2023/05/25 10:52:30;;;;;;;5.82;3.38;;;20.40;66.50;;;;;;5015286;28;20093;-78
2023/05/25 10:55:06;;;;;;;10.63;3.88;;;21.30;65.00;;;;;;5016843;28;20050;-77
2023/05/25 10:57:31;;;;;;;7.93;4.13;;;21.60;64.50;;;;;;5025649;28;20121;-78
2023/05/25 11:00:05;;;;;;;7.55;3.70;;;21.40;65.50;;;;;;5019976;28;20069;-78
2023/05/25 11:02:49;;;;;;;7.45;3.28;;;21.90;64.00;;;;;;5013450;28;20079;-79
2023/05/25 11:05:30;;;;;;;11.15;3.85;;;22.20;62.60;;;;;;5033788;28;20033;-79
2023/05/25 11:08:00;;;;;;;9.05;3.60;;;22.30;65.90;;;;;;5024199;28;20355;-79
2023/05/25 11:10:47;;;;;;;7.75;3.45;;;23.10;60.20;;;;;;5010539;28;20018;-79
2023/05/25 11:13:36;;;;;;;12.45;3.50;;;24.60;60.10;;;;;;4993280;28;20355;-78
2023/05/25 11:16:11;;;;;;;8.23;3.88;;;25.70;60.60;;;;;;5010884;28;20267;-77
2023/05/25 11:18:39;;;;;;;6.57;3.58;;;23.90;58.20;;;;;;5021487;28;20036;-76
2023/05/25 11:21:12;;;;;;;13.05;4.43;;;23.80;59.20;;;;;;5006147;28;20016;-77
2023/05/25 11:24:11;;;;;;;8.60;3.75;;;22.70;59.50;;;;;;5006308;28;20114;-77
2023/05/25 11:26:51;;;;;;;6.68;3.60;;;22.70;62.50;;;;;;5011392;28;20049;-77
2023/05/25 11:29:20;;;;;;;8.30;3.75;;;22.70;61.20;;;;;;4995817;28;20029;-77
2023/05/25 11:31:54;;;;;;;6.82;3.50;;;22.40;60.20;;;;;;5010490;28;20028;-80
2023/05/25 11:34:23;;;;;;;9.30;3.85;;;22.50;62.40;;;;;;5006707;28;20042;-77
2023/05/25 11:36:53;;;;;;;8.23;3.47;;;22.80;62.50;;;;;;5011682;28;20038;-77
2023/05/25 11:39:21;;;;;;;8.23;3.85;;;22.50;61.40;;;;;;5024843;28;20376;-81
2023/05/25 11:41:54;;;;;;;7.20;2.90;;;22.70;63.10;;;;;;4992597;28;20030;-78
2023/05/25 11:44:32;;;;;;;7.22;3.53;;;23.40;60.00;;;;;;5010540;28;20022;-79
2023/05/25 11:47:00;;;;;;;5.20;3.35;;;24.30;59.40;;;;;;4992640;28;20030;-77
2023/05/25 11:49:27;;;;;;;5.40;3.35;;;25.20;56.20;;;;;;4992062;28;20022;-80
2023/05/25 11:51:53;;;;;;;13.07;4.20;;;25.10;56.50;;;;;;5009883;28;20247;-77
2023/05/25 11:54:26;;;;;;;3.50;3.10;;;24.90;56.00;;;;;;5009831;28;20026;-77
2023/05/25 11:56:57;;;;;;;10.40;4.15;;;24.90;57.40;;;;;;5009859;28;20141;-81
2023/05/25 11:59:27;;;;;;;9.85;2.95;;;25.30;56.40;;;;;;4990424;28;20053;-80
2023/05/25 12:02:02;;;;;;;;;;;26.70;53.50;;;;;;4991112;28;20027;-77
2023/05/25 12:04:29;;;;;;;8.70;3.20;;;26.70;53.00;;;;;;4988641;28;19910;-78
2023/05/25 12:07:03;;;;;;;7.97;3.38;;;26.50;55.90;;;;;;4996624;28;20034;-77
2023/05/25 12:09:28;;;;;;;6.30;3.65;;;24.30;57.30;;;;;;5005064;28;20061;-77
2023/05/25 12:11:54;;;;;;;11.15;3.78;;;22.60;60.70;;;;;;5002213;28;20019;-77
2023/05/25 12:14:20;;;;;;;9.50;4.28;;;22.10;63.10;;;;;;5001047;28;20050;-77
2023/05/25 12:16:45;;;;;;;9.98;3.58;;;22.30;63.80;;;;;;4996486;28;20046;-77
2023/05/25 12:19:11;;;;;;;4.80;2.95;;;22.60;61.70;;;;;;5007263;28;20023;-77
2023/05/25 12:21:39;;;;;;;6.18;2.85;;;22.60;61.80;;;;;;4989997;28;20384;-77
2023/05/25 12:24:05;;;;;;;12.18;2.88;;;23.10;62.20;;;;;;4989631;28;20097;-77
2023/05/25 12:26:31;;;;;;;9.88;3.50;;;23.80;61.50;;;;;;4989671;28;20282;-78
2023/05/25 12:29:08;;;;;;;5.47;3.00;;;24.10;62.40;;;;;;4989374;28;20340;-77
2023/05/25 12:31:37;;;;;;;9.77;3.75;;;25.00;61.20;;;;;;4990108;28;20034;-77
2023/05/25 12:34:13;;;;;;;6.60;3.53;;;25.20;58.80;;;;;;4989270;28;20043;-77
2023/05/25 12:36:47;;;;;;;11.57;3.80;;;24.90;57.70;;;;;;4990306;28;20129;-78
2023/05/25 12:39:15;;;;;;;6.72;3.15;;;24.90;56.50;;;;;;4989228;28;20018;-77
2023/05/25 12:41:51;;;;;;;9.18;4.20;;;24.90;56.80;;;;;;4989652;28;20475;-78
2023/05/25 12:44:18;;;;;;;8.73;3.88;;;24.20;57.00;;;;;;4989620;28;20018;-77
2023/05/25 12:46:43;;;;;;;20.13;3.92;;;24.40;58.00;;;;;;4992339;28;20491;-77
2023/05/25 12:49:29;;;;;;;6.72;3.20;;;24.20;59.70;;;;;;5008663;28;20041;-78
2023/05/25 12:51:56;;;;;;;8.90;3.80;;;24.10;57.90;;;;;;4990333;28;20060;-79
2023/05/25 12:54:51;;;;;;;8.10;3.72;;;23.70;59.40;;;;;;4990252;28;20113;-77